createdAt,value
2023-04-28T00:02:49.206Z,96877.78
2023-04-28T00:07:44.117Z,96880.88
2023-04-28T00:12:37.528Z,96874.69
2023-04-28T00:17:30.989Z,96874.34
2023-04-28T00:22:24.437Z,96870.13
2023-04-28T00:27:19.249Z,96862.91
2023-04-28T00:32:13.646Z,96865.53
2023-04-28T00:37:07.118Z,96861.13
2023-04-28T00:42:00.510Z,96853.91
2023-04-28T00:46:55.868Z,96846.03
2023-04-28T00:51:49.186Z,96842.41
2023-04-28T00:56:42.978Z,96833.09
2023-04-28T01:01:37.081Z,96830.41
2023-04-28T01:06:59.859Z,96837.03
2023-04-28T01:12:32.916Z,96821.38
2023-04-28T01:18:27.518Z,96827.03
2023-04-28T01:23:22.289Z,96822.78
2023-04-28T01:28:17.073Z,96824.97
2023-04-28T01:33:10.462Z,96827.53
2023-04-28T01:38:04.341Z,96825.41
2023-04-28T01:42:57.709Z,96811.41
2023-04-28T01:47:52.529Z,96807.97
2023-04-28T01:52:45.971Z,96810.09
2023-04-28T01:57:39.631Z,96806.50
2023-04-28T02:02:33.024Z,96797.53
2023-04-28T02:07:27.835Z,96807.06
2023-04-28T02:12:21.299Z,96813.59
2023-04-28T02:17:14.609Z,96813.56
2023-04-28T02:22:08.165Z,96816.28
2023-04-28T02:27:02.930Z,96824.69
2023-04-28T02:31:56.483Z,96839.13
2023-04-28T02:36:50.019Z,96854.78
2023-04-28T02:41:43.471Z,96854.69
2023-04-28T02:46:38.288Z,96845.41
2023-04-28T02:51:31.824Z,96837.22
2023-04-28T02:56:25.301Z,96827.66
2023-04-28T03:01:18.644Z,96808.34
2023-04-28T03:06:13.469Z,96810.66
2023-04-28T03:11:07.089Z,96824.56
2023-04-28T03:16:00.515Z,96816.50
2023-04-28T03:20:53.966Z,96817.03
2023-04-28T03:25:48.794Z,96817.34
2023-04-28T03:30:42.143Z,96827.41
2023-04-28T03:35:35.516Z,96835.97
2023-04-28T03:40:28.843Z,96851.88
2023-04-28T03:45:23.568Z,96824.06
2023-04-28T03:50:16.942Z,96817.47
2023-04-28T03:55:11.637Z,96822.16
2023-04-28T04:00:06.076Z,96795.19
2023-04-28T04:05:00.967Z,96801.28
2023-04-28T04:09:54.514Z,96817.69
2023-04-28T04:14:51.066Z,96802.25
2023-04-28T04:19:44.483Z,96792.66
2023-04-28T04:29:53.640Z,96798.38
2023-04-28T04:34:46.873Z,96790.75
2023-04-28T04:39:40.399Z,96791.28
2023-04-28T04:44:33.705Z,96799.63
2023-04-28T04:49:28.442Z,96802.59
2023-04-28T04:54:27.712Z,96804.25
2023-04-28T04:59:24.578Z,96805.00
2023-04-28T05:04:18.136Z,96786.59
2023-04-28T05:09:13.249Z,96778.31
2023-04-28T05:14:06.576Z,96770.19
2023-04-28T05:19:00.475Z,96771.84
2023-04-28T05:23:53.845Z,96773.38
2023-04-28T05:28:48.575Z,96777.28
2023-04-28T05:33:41.922Z,96782.06
2023-04-28T05:38:36.089Z,96768.94
2023-04-28T05:43:29.593Z,96758.16
2023-04-28T05:48:24.948Z,96757.22
2023-04-28T05:53:18.328Z,96752.31
2023-04-28T05:58:11.722Z,96762.56
2023-04-28T06:03:05.626Z,96754.22
2023-04-28T06:08:00.536Z,96760.56
2023-04-28T06:12:53.866Z,96759.78
2023-04-28T06:17:47.147Z,96767.09
2023-04-28T06:30:05.350Z,96760.22
2023-04-28T06:34:58.833Z,96760.19
2023-04-28T06:39:53.510Z,96745.25
2023-04-28T06:44:46.794Z,96736.03
2023-04-28T06:49:40.077Z,96740.44
2023-04-28T06:54:37.545Z,96733.63
2023-04-28T06:59:32.734Z,96734.84
2023-04-28T07:04:27.343Z,96740.94
2023-04-28T07:09:20.831Z,96731.31
2023-04-28T07:14:14.310Z,96726.78
2023-04-28T07:19:09.091Z,96719.16
2023-04-28T07:24:03.042Z,96721.91
2023-04-28T07:28:56.355Z,96713.72
2023-04-28T07:33:59.321Z,96706.19
2023-04-28T07:38:54.666Z,96712.66
2023-04-28T07:43:48.177Z,96716.06
2023-04-28T07:48:41.684Z,96716.72
2023-04-28T07:53:35.469Z,96730.75
2023-04-28T07:58:30.087Z,96772.81
2023-04-28T08:03:23.504Z,96753.13
2023-04-28T08:08:17.137Z,96768.56
2023-04-28T08:13:10.588Z,96751.84
2023-04-28T08:18:05.659Z,96764.13
2023-04-28T08:22:59.177Z,96777.16
2023-04-28T08:27:52.600Z,96769.97
2023-04-28T08:32:46.116Z,96759.16
2023-04-28T08:37:40.904Z,96763.94
2023-04-28T08:42:35.854Z,96761.47
2023-04-28T08:47:36.841Z,96750.38
2023-04-28T08:52:31.583Z,96767.84
2023-04-28T08:57:29.312Z,96777.75
2023-04-28T09:02:22.884Z,96777.97
2023-04-28T09:07:16.373Z,96768.00
2023-04-28T09:12:09.841Z,96770.94
2023-04-28T09:17:11.515Z,96759.66
2023-04-28T09:22:21.875Z,96754.00
2023-04-28T09:27:28.427Z,96759.78
2023-04-28T09:32:25.186Z,96756.63
2023-04-28T09:37:20.895Z,96759.78
2023-04-28T09:42:34.738Z,96762.25
2023-04-28T09:47:30.173Z,96769.50
2023-04-28T09:52:23.801Z,96768.13
2023-04-28T09:57:18.869Z,96759.38
2023-04-28T10:02:31.991Z,96761.03
2023-04-28T10:07:30.793Z,96771.81
2023-04-28T10:12:25.929Z,96774.72
2023-04-28T10:17:19.562Z,96778.03
2023-04-28T10:22:56.024Z,96782.06
2023-04-28T10:27:51.345Z,96772.06
2023-04-28T10:32:45.932Z,96773.44
2023-04-28T10:38:12.329Z,96760.19
2023-04-28T10:43:53.301Z,96758.16
2023-04-28T10:49:01.844Z,96750.97
2023-04-28T10:54:19.914Z,96753.03
2023-04-28T10:59:30.068Z,96752.63
2023-04-28T11:04:24.560Z,96749.59
2023-04-28T11:09:52.495Z,96752.22
2023-04-28T11:14:45.887Z,96753.63
2023-04-28T11:19:41.660Z,96750.97
2023-04-28T11:24:39.102Z,96748.88
2023-04-28T11:29:36.227Z,96751.66
2023-04-28T11:34:29.674Z,96748.59
2023-04-28T11:39:29.794Z,96754.81
2023-04-28T11:44:24.832Z,96757.88
2023-04-28T11:49:20.696Z,96752.34
2023-04-28T11:54:15.156Z,96746.41
2023-04-28T11:59:11.360Z,96738.47
2023-04-28T12:04:05.800Z,96743.63
2023-04-28T12:09:04.546Z,96743.50
2023-04-28T12:14:10.808Z,96735.72
2023-04-28T12:19:08.009Z,96736.13
2023-04-28T12:24:03.331Z,96731.50
2023-04-28T12:28:56.681Z,96733.75
2023-04-28T12:33:50.172Z,96723.16
2023-04-28T12:38:49.922Z,96707.81
2023-04-28T12:43:44.686Z,96705.47
2023-04-28T12:48:38.301Z,96700.56
2023-04-28T12:53:31.623Z,96698.16
2023-04-28T12:58:24.924Z,96691.06
2023-04-28T13:03:21.522Z,96702.00
2023-04-28T13:08:15.152Z,96707.84
2023-04-28T13:13:08.458Z,96691.94
2023-04-28T13:18:01.866Z,96699.47
2023-04-28T13:22:56.635Z,96684.72
2023-04-28T13:27:49.988Z,96663.44
2023-04-28T13:32:43.353Z,96660.88
2023-04-28T13:37:42.499Z,96657.91
2023-04-28T13:42:37.193Z,96651.13
2023-04-28T13:47:32.750Z,96649.84
2023-04-28T13:52:26.041Z,96657.34
2023-04-28T13:57:19.405Z,96639.44
2023-04-28T14:02:14.146Z,96641.69
2023-04-28T14:07:07.541Z,96623.81
2023-04-28T14:12:05.115Z,96621.63
2023-04-28T14:16:58.498Z,96607.47
2023-04-28T14:21:55.804Z,96613.38
2023-04-28T14:26:49.599Z,96617.09
2023-04-28T14:38:19.145Z,96612.91
2023-04-28T14:43:38.098Z,96625.50
2023-04-28T14:55:41.972Z,96606.94
2023-04-28T15:01:09.111Z,96596.69
2023-04-28T15:06:11.573Z,96588.03
2023-04-28T15:11:14.445Z,96578.47
2023-04-28T15:16:13.972Z,96594.22
2023-04-28T15:21:21.865Z,96581.09
2023-04-28T15:26:40.477Z,96562.31
2023-04-28T15:31:37.414Z,96560.53
2023-04-28T15:36:50.337Z,96574.94
2023-04-28T15:41:55.502Z,96571.56
2023-04-28T15:46:48.888Z,96575.53
2023-04-28T15:51:42.281Z,96550.09
2023-04-28T15:56:38.140Z,96530.28
2023-04-28T16:01:33.252Z,96532.72
2023-04-28T16:06:26.700Z,96529.09
2023-04-28T16:11:20.505Z,96524.81
2023-04-28T16:16:14.259Z,96528.03
2023-04-28T16:21:09.012Z,96515.50
2023-04-28T16:26:02.525Z,96512.59
2023-04-28T16:30:55.942Z,96507.94
2023-04-28T16:35:56.157Z,96507.44
2023-04-28T16:40:51.505Z,96514.72
2023-04-28T16:45:45.004Z,96513.22
2023-04-28T16:50:40.803Z,96513.06
2023-04-28T16:55:36.338Z,96518.00
2023-04-28T17:00:31.102Z,96497.97
2023-04-28T17:05:24.431Z,96473.88
2023-04-28T17:10:19.781Z,96479.53
2023-04-28T17:15:17.352Z,96504.31
2023-04-28T17:20:16.819Z,96522.13
2023-04-28T17:25:12.032Z,96508.88
2023-04-28T17:30:06.486Z,96518.75
2023-04-28T17:35:23.164Z,96511.81
2023-04-28T17:46:28.743Z,96523.00
2023-04-28T17:51:23.711Z,96529.72
2023-04-28T17:56:17.669Z,96534.50
2023-04-28T18:01:11.133Z,96529.84
2023-04-28T18:06:13.872Z,96547.91
2023-04-28T18:12:20.980Z,96536.16
2023-04-28T18:17:14.303Z,96537.59
2023-04-28T18:27:14.895Z,96559.88
2023-04-28T18:32:12.738Z,96555.13
2023-04-28T18:37:08.204Z,96550.31
2023-04-28T18:42:05.727Z,96559.16
2023-04-28T18:47:32.404Z,96559.09
2023-04-28T19:19:03.802Z,96587.03
2023-04-28T19:24:43.697Z,96598.00
2023-04-28T19:30:14.481Z,96603.06
2023-04-28T19:35:10.539Z,96605.47
2023-04-28T19:40:17.765Z,96611.84
2023-04-28T19:45:12.222Z,96614.94
2023-04-28T19:50:10.354Z,96625.06
2023-04-28T19:55:24.726Z,96619.94
2023-04-28T20:00:51.306Z,96629.00
2023-04-28T20:05:46.986Z,96634.44
2023-04-28T20:10:46.445Z,96638.59
2023-04-28T20:15:43.444Z,96632.34
2023-04-28T20:41:07.732Z,96652.00
2023-04-28T20:46:01.114Z,96657.06
2023-04-28T20:50:55.363Z,96658.59
2023-04-28T20:55:48.750Z,96666.75
2023-04-28T21:00:44.258Z,96672.00
2023-04-28T21:05:37.617Z,96663.94
2023-04-28T21:10:32.346Z,96661.75
2023-04-28T21:15:26.296Z,96674.66
2023-04-28T21:40:49.179Z,96646.28
2023-04-28T21:45:42.712Z,96665.03
2023-04-28T21:50:36.884Z,96652.78
2023-04-28T21:55:30.334Z,96642.66
2023-04-28T22:00:26.098Z,96647.66
2023-04-28T22:05:20.136Z,96653.47
2023-04-28T22:10:14.303Z,96646.28
2023-04-28T22:15:09.573Z,96655.44
2023-04-28T22:20:04.389Z,96651.84
2023-04-28T22:24:57.789Z,96645.03
2023-04-28T22:29:51.590Z,96642.09
2023-04-28T22:34:45.324Z,96630.16
2023-04-28T22:49:54.016Z,96625.78
2023-04-28T22:54:47.312Z,96623.44
2023-04-28T22:59:40.636Z,96623.47
2023-04-28T23:04:34.127Z,96619.97
2023-04-28T23:09:29.281Z,96624.69
2023-04-28T23:14:22.695Z,96626.34
2023-04-28T23:19:16.554Z,96626.75
2023-04-28T23:24:11.466Z,96625.94
2023-04-28T23:29:06.298Z,96629.00
2023-04-28T23:33:59.805Z,96628.69
2023-04-28T23:38:53.157Z,96632.47
2023-04-28T23:43:46.513Z,96625.25
2023-04-28T23:48:41.267Z,96622.50
2023-04-28T23:53:34.630Z,96630.50
2023-04-28T23:58:32.637Z,96620.84
